Time;durP1;ratioP1;P1;durP2;ratioP2;P2;SDS_P1;SDS_P2;PMS_P1;PMS_P2;Temp;Humidity;BMP_temperature;BMP_pressure;BME280_temperature;BME280_humidity;BME280_pressure;Samples;Min_cycle;Max_cycle;Signal;HPM_P1;HPM_P2
2022/09/12 00:02:16;;;;;;;4.23;3.83;;;;;;;14.45;72.57;99066.41;5077101;28;42528;-81
2022/09/12 00:04:44;;;;;;;3.80;3.43;;;;;;;14.44;72.72;99054.88;5076492;28;43460;-81
2022/09/12 00:07:12;;;;;;;3.30;3.00;;;;;;;14.11;72.52;99009.41;5076836;28;41435;-79
2022/09/12 00:09:40;;;;;;;4.63;4.23;;;;;;;14.40;72.57;99060.53;5059754;28;39594;-79
2022/09/12 00:12:08;;;;;;;3.97;3.60;;;;;;;14.38;72.35;99061.47;5093437;28;41791;-83
2022/09/12 00:14:36;;;;;;;4.30;3.90;;;;;;;14.37;72.64;99062.44;5094576;28;42624;-78
2022/09/12 00:17:05;;;;;;;4.37;3.97;;;;;;;14.34;72.63;99053.84;5059878;28;43817;-80
2022/09/12 00:19:32;;;;;;;3.77;3.47;;;;;;;14.33;72.58;99057.47;5076489;28;38490;-80
2022/09/12 00:22:01;;;;;;;3.73;3.33;;;;;;;14.30;72.36;99052.38;5059625;28;41876;-81
2022/09/12 00:24:28;;;;;;;3.60;3.30;;;;;;;14.24;72.67;99040.34;5059018;28;43341;-83
2022/09/12 00:26:56;;;;;;;4.27;3.50;;;;;;;14.22;72.63;99042.25;5073566;28;43202;-79
2022/09/12 00:29:24;;;;;;;3.97;3.67;;;;;;;14.21;72.50;99047.72;5076461;28;39833;-80
2022/09/12 00:31:51;;;;;;;4.20;3.80;;;;;;;14.17;72.78;99040.91;5076636;28;41687;-82
2022/09/12 00:34:21;;;;;;;3.70;3.40;;;;;;;14.13;72.91;99040.28;5075963;28;41663;-79
2022/09/12 00:36:48;;;;;;;4.07;3.67;;;;;;;14.12;72.81;99043.06;5059005;28;41180;-77
2022/09/12 00:39:17;;;;;;;3.50;3.20;;;;;;;14.10;72.58;99042.31;5076149;28;38550;-79
2022/09/12 00:41:45;;;;;;;4.17;3.60;;;;;;;14.06;72.74;99038.19;5059154;28;42647;-79
2022/09/12 00:44:45;;;;;;;4.00;3.60;;;;;;;14.04;72.84;99035.66;5094227;28;43791;-81
2022/09/12 00:47:27;;;;;;;3.60;3.13;;;;;;;13.97;72.57;99029.09;5091497;28;42360;-82
2022/09/12 00:50:01;;;;;;;3.57;3.27;;;;;;;13.95;72.83;99021.22;5075095;28;40733;-81
2022/09/12 00:52:34;;;;;;;3.80;3.50;;;;;;;13.59;72.97;98960.03;5072937;28;41729;-83
2022/09/12 00:55:07;;;;;;;3.90;3.43;;;;;;;13.90;73.57;99020.69;5075684;28;41710;-77
2022/09/12 00:57:39;;;;;;;5.77;5.00;;;;;;;13.85;74.32;99012.16;5076232;28;41192;-81
2022/09/12 01:00:14;;;;;;;4.73;4.30;;;;;;;13.87;74.29;99012.91;5059044;28;40321;-81
2022/09/12 01:02:44;;;;;;;4.97;4.37;;;;;;;13.78;73.88;99002.94;5075884;28;41201;-80
2022/09/12 01:05:14;;;;;;;4.50;4.10;;;;;;;13.83;74.01;99011.47;5093493;28;42975;-81
2022/09/12 01:07:43;;;;;;;4.57;4.17;;;;;;;13.77;73.84;99003.91;5076072;28;41268;-78
2022/09/12 01:10:11;;;;;;;3.60;3.30;;;;;;;13.80;73.95;99011.69;5058766;28;38942;-83
2022/09/12 01:12:42;;;;;;;3.07;2.87;;;;;;;13.75;73.87;99007.63;5058870;28;40604;-80
2022/09/12 01:15:10;;;;;;;3.93;3.53;;;;;;;13.73;74.12;99015.72;5075108;28;43086;-83
2022/09/12 01:17:51;;;;;;;3.67;3.37;;;;;;;13.69;74.12;99011.63;5076039;28;42244;-78
2022/09/12 01:20:50;;;;;;;4.03;3.63;;;;;;;13.66;73.97;99014.50;5074912;28;40795;-80
2022/09/12 01:23:53;;;;;;;4.10;3.40;;;;;;;13.61;74.05;99016.63;5075908;28;40670;-78
2022/09/12 01:26:46;;;;;;;4.70;3.60;;;;;;;13.57;74.27;99020.50;5093237;28;43698;-80
2022/09/12 01:29:44;;;;;;;4.63;3.83;;;;;;;13.54;74.52;99012.72;5073243;28;43463;-82
2022/09/12 01:32:23;;;;;;;3.77;3.43;;;;;;;13.51;73.99;99015.59;5058795;28;39975;-79
2022/09/12 01:34:56;;;;;;;3.80;3.40;;;;;;;13.47;73.99;99014.97;5058317;28;40257;-80
2022/09/12 01:37:33;;;;;;;4.80;3.60;;;;;;;13.46;74.45;99007.09;5090493;28;43630;-79
2022/09/12 01:40:09;;;;;;;4.57;3.90;;;;;;;13.48;74.85;99007.81;5074106;28;42120;-83
2022/09/12 01:42:45;;;;;;;6.33;5.53;;;;;;;13.50;75.28;99008.56;5090068;28;39911;-78
2022/09/12 01:45:19;;;;;;;6.33;5.47;;;;;;;13.52;75.72;99001.31;5058520;28;41003;-78
2022/09/12 01:47:53;;;;;;;4.43;4.03;;;;;;;13.55;75.56;99007.28;5058331;28;42980;-80
2022/09/12 01:50:27;;;;;;;6.27;4.20;;;;;;;13.55;75.48;99007.28;5074610;28;43960;-80
2022/09/12 01:52:59;;;;;;;4.87;4.37;;;;;;;13.57;75.14;99015.16;5058560;28;39031;-77
2022/09/12 01:55:31;;;;;;;4.80;4.40;;;;;;;13.60;74.96;99017.56;5058250;28;40719;-77
2022/09/12 01:58:05;;;;;;;6.27;5.00;;;;;;;13.55;74.88;98987.81;5075520;28;41864;-82
2022/09/12 02:00:37;;;;;;;5.17;4.60;;;;;;;13.72;75.21;99003.41;5092601;28;42986;-81
2022/09/12 02:03:12;;;;;;;6.17;5.37;;;;;;;13.76;75.67;99004.00;5089923;28;40464;-78
2022/09/12 02:05:45;;;;;;;6.03;4.43;;;;;;;13.78;75.25;99002.94;5091432;28;41946;-78
2022/09/12 02:08:17;;;;;;;4.83;4.37;;;;;;;13.68;75.06;98985.09;5058009;28;41030;-82
2022/09/12 02:10:51;;;;;;;4.40;4.00;;;;;;;13.84;75.01;99007.84;5058197;28;42750;-80
2022/09/12 02:13:25;;;;;;;3.60;3.30;;;;;;;13.84;74.71;98991.88;5057925;28;39085;-77
2022/09/12 02:15:58;;;;;;;4.70;3.80;;;;;;;13.86;74.60;98989.91;5058036;28;41131;-80
2022/09/12 02:18:31;;;;;;;4.30;3.90;;;;;;;13.94;74.71;98997.34;5074530;28;41671;-79
2022/09/12 02:21:01;;;;;;;4.33;3.83;;;;;;;13.91;74.39;98982.44;5089580;28;43253;-79
2022/09/12 02:23:31;;;;;;;3.80;3.50;;;;;;;13.96;74.33;98996.28;5092607;28;39830;-81
2022/09/12 02:26:06;;;;;;;4.60;4.13;;;;;;;13.96;74.46;98988.28;5074580;28;42181;-78
2022/09/12 02:28:38;;;;;;;4.53;3.67;;;;;;;13.93;74.74;98969.03;5071609;28;43555;-81
2022/09/12 02:31:13;;;;;;;6.33;5.03;;;;;;;13.96;75.83;98982.13;5074544;28;42267;-77
2022/09/12 02:33:48;;;;;;;7.33;5.50;;;;;;;13.94;75.27;98982.22;5089676;28;40048;-82
2022/09/12 02:36:28;;;;;;;7.17;5.87;;;;;;;13.96;75.57;98987.44;5071705;28;42129;-79
2022/09/12 02:38:56;;;;;;;4.83;4.43;;;;;;;13.92;75.80;98985.97;5057875;28;41974;-78
2022/09/12 02:41:24;;;;;;;4.80;4.40;;;;;;;13.90;75.54;98983.41;5074532;28;43244;-81
2022/09/12 02:43:53;;;;;;;5.30;4.80;;;;;;;13.90;75.84;98985.22;5074354;28;38902;-78
2022/09/12 02:46:23;;;;;;;5.20;4.70;;;;;;;13.92;75.75;98994.81;5074203;28;41906;-79
2022/09/12 02:48:53;;;;;;;5.10;4.53;;;;;;;13.86;75.63;98973.94;5057217;28;42703;-78
2022/09/12 02:51:22;;;;;;;4.90;4.47;;;;;;;13.93;75.80;98975.22;5092303;28;43188;-80
2022/09/12 02:53:50;;;;;;;5.50;4.63;;;;;;;14.02;76.44;98982.50;5074219;28;40008;-81
2022/09/12 02:56:23;;;;;;;6.87;5.00;;;;;;;14.05;76.78;98991.22;5092359;28;42790;-81
2022/09/12 02:58:52;;;;;;;5.27;4.77;;;;;;;14.05;76.89;98994.75;5074016;28;41986;-80
2022/09/12 03:01:31;;;;;;;4.93;4.43;;;;;;;14.05;77.07;98991.22;5073576;28;41111;-79
2022/09/12 03:04:16;;;;;;;5.40;4.60;;;;;;;14.05;76.74;98983.25;5071543;28;40057;-77
2022/09/12 03:06:56;;;;;;;5.50;4.53;;;;;;;14.01;76.79;98971.97;5089047;28;41605;-82
2022/09/12 03:09:34;;;;;;;6.70;4.57;;;;;;;14.09;76.62;98976.72;5073619;28;43119;-78
2022/09/12 03:12:26;;;;;;;3.97;3.57;;;;;;;14.10;76.59;98975.75;5089080;28;43215;-81
2022/09/12 03:15:22;;;;;;;4.47;4.07;;;;;;;14.13;76.58;98980.84;5057096;28;40474;-81
2022/09/12 03:18:06;;;;;;;3.97;3.60;;;;;;;14.13;76.58;98981.69;5071886;28;40726;-81
2022/09/12 03:20:45;;;;;;;4.03;3.63;;;;;;;14.11;76.61;98972.13;5060422;28;41729;-79
2022/09/12 03:23:23;;;;;;;4.30;3.90;;;;;;;14.18;76.35;98989.34;5061235;28;41048;-81
2022/09/12 03:25:56;;;;;;;3.60;3.30;;;;;;;14.10;76.32;98965.94;5077247;28;38713;-82
2022/09/12 03:28:24;;;;;;;4.00;3.67;;;;;;;14.25;76.33;98987.91;5077565;28;41956;-79
2022/09/12 03:30:54;;;;;;;4.10;3.70;;;;;;;14.27;76.51;98983.31;5060647;28;43463;-79
2022/09/12 03:33:24;;;;;;;4.40;3.33;;;;;;;14.20;76.79;98966.13;5095329;28;43237;-79
2022/09/12 03:35:55;;;;;;;4.23;3.80;;;;;;;14.30;76.59;98983.94;5077607;28;39676;-80
2022/09/12 03:38:22;;;;;;;3.93;3.53;;;;;;;14.28;76.82;98985.03;5095069;28;42308;-79
2022/09/12 03:40:50;;;;;;;3.57;3.27;;;;;;;14.28;77.09;98977.03;5077537;28;44270;-79
2022/09/12 03:43:18;;;;;;;3.97;3.63;;;;;;;14.27;77.11;98984.16;5095399;28;42239;-83
2022/09/12 03:45:50;;;;;;;4.83;4.30;;;;;;;14.27;77.13;98980.66;5060499;28;40190;-80
2022/09/12 03:48:17;;;;;;;5.07;4.47;;;;;;;13.94;77.12;98931.63;5092189;28;42594;-82
2022/09/12 03:50:45;;;;;;;7.50;4.90;;;;;;;14.28;77.04;98983.22;5077128;28;42558;-80
2022/09/12 03:53:14;;;;;;;6.97;4.40;;;;;;;14.29;76.85;98989.38;5076859;28;42492;-78
2022/09/12 03:55:42;;;;;;;6.47;4.97;;;;;;;14.28;76.85;98985.03;5060245;28;40184;-81
2022/09/12 03:58:09;;;;;;;5.23;4.47;;;;;;;14.27;77.17;98981.50;5059958;28;42124;-78
2022/09/12 04:00:38;;;;;;;5.97;4.60;;;;;;;14.29;77.69;98989.38;5059612;28;44487;-79
2022/09/12 04:03:06;;;;;;;4.97;4.37;;;;;;;14.32;78.20;98981.16;5059937;28;42155;-78
2022/09/12 04:05:35;;;;;;;5.57;4.70;;;;;;;14.29;77.69;98981.41;5060263;28;39919;-78
2022/09/12 04:08:03;;;;;;;5.20;4.37;;;;;;;14.33;77.81;98978.41;5076865;28;41619;-82
2022/09/12 04:10:32;;;;;;;7.30;5.27;;;;;;;14.34;78.52;98981.91;5094862;28;42973;-79
2022/09/12 04:13:00;;;;;;;7.07;5.43;;;;;;;14.32;78.51;98979.34;5076760;28;42578;-81
2022/09/12 04:15:28;;;;;;;7.10;5.37;;;;;;;14.32;78.22;98976.69;5059610;28;40119;-78
2022/09/12 04:17:55;;;;;;;6.03;4.83;;;;;;;14.35;78.19;98980.91;5059985;28;40773;-80
2022/09/12 04:20:23;;;;;;;6.90;5.67;;;;;;;14.33;77.92;98977.53;5094354;28;42737;-79
2022/09/12 04:22:51;;;;;;;6.57;5.13;;;;;;;14.41;78.04;98985.81;5094703;28;42995;-81
2022/09/12 04:25:18;;;;;;;7.00;5.80;;;;;;;14.45;77.92;98987.31;5076091;28;40953;-80
2022/09/12 04:27:47;;;;;;;6.23;5.27;;;;;;;14.46;77.76;98983.66;5075865;28;41783;-80
2022/09/12 04:30:15;;;;;;;6.70;5.53;;;;;;;14.47;77.75;98990.66;5059797;28;42318;-80
2022/09/12 04:32:43;;;;;;;7.63;6.03;;;;;;;14.49;77.85;98994.06;5094561;28;42168;-81
2022/09/12 04:35:11;;;;;;;7.13;5.70;;;;;;;14.47;78.20;98984.50;5059397;28;38709;-79
2022/09/12 04:37:39;;;;;;;7.23;5.97;;;;;;;14.48;77.66;98989.72;5076370;28;41707;-80
2022/09/12 04:40:08;;;;;;;5.67;5.07;;;;;;;14.49;77.91;98983.41;5076230;28;42788;-81
2022/09/12 04:42:36;;;;;;;6.50;5.77;;;;;;;14.49;78.17;98991.41;5058583;28;43064;-78
2022/09/12 04:45:06;;;;;;;6.47;5.73;;;;;;;14.55;78.06;98988.28;5076135;28;38956;-78
2022/09/12 04:47:34;;;;;;;6.33;5.20;;;;;;;14.57;77.56;98981.03;5076532;28;42946;-82
2022/09/12 04:50:01;;;;;;;6.70;5.27;;;;;;;14.60;77.99;98983.44;5075849;28;41845;-83
2022/09/12 04:52:29;;;;;;;6.40;5.23;;;;;;;14.64;77.78;98986.72;5076089;28;42432;-80
2022/09/12 04:54:57;;;;;;;5.27;4.77;;;;;;;14.67;77.57;98987.34;5075884;28;39692;-79
2022/09/12 04:57:25;;;;;;;5.63;5.10;;;;;;;14.62;77.92;98972.66;5075969;28;42389;-81
2022/09/12 04:59:53;;;;;;;6.00;5.17;;;;;;;14.66;77.59;98980.31;5075775;28;43003;-79
2022/09/12 05:02:22;;;;;;;6.43;5.10;;;;;;;14.73;77.81;98992.19;5093977;28;42297;-79
2022/09/12 05:04:50;;;;;;;5.20;4.70;;;;;;;14.59;77.92;98968.41;5093153;28;40956;-81
2022/09/12 05:07:17;;;;;;;6.17;5.00;;;;;;;14.78;77.64;98996.31;5075764;28;41433;-81
2022/09/12 05:09:45;;;;;;;5.47;4.93;;;;;;;14.82;77.74;98995.13;5093579;28;42686;-81
2022/09/12 05:12:13;;;;;;;7.33;5.20;;;;;;;14.72;77.72;98974.50;5075490;28;41234;-82
2022/09/12 05:14:41;;;;;;;6.37;5.37;;;;;;;14.74;77.49;98979.72;5075494;28;39909;-81
2022/09/12 05:17:09;;;;;;;9.70;6.90;;;;;;;14.78;77.27;98983.00;5075796;28;42785;-79
2022/09/12 05:19:38;;;;;;;6.83;6.00;;;;;;;14.90;77.68;99001.56;5058367;28;41479;-80
2022/09/12 05:22:05;;;;;;;7.17;5.80;;;;;;;14.73;77.52;98978.84;5058515;28;41657;-78
2022/09/12 05:24:34;;;;;;;6.40;5.67;;;;;;;14.92;77.50;99001.44;5075365;28;39926;-78
2022/09/12 05:27:03;;;;;;;6.50;5.70;;;;;;;15.00;77.57;99015.88;5075503;28;40647;-79
2022/09/12 05:29:32;;;;;;;6.30;5.67;;;;;;;15.04;77.31;99011.16;5075219;28;44827;-83
2022/09/12 05:32:00;;;;;;;5.83;5.17;;;;;;;15.08;77.40;99004.63;5093342;28;43449;-82
2022/09/12 05:34:28;;;;;;;6.67;5.90;;;;;;;15.15;77.06;99013.81;5058428;28;39056;-80
2022/09/12 05:36:57;;;;;;;7.40;6.03;;;;;;;15.16;77.03;99004.84;5065279;28;41572;-78
2022/09/12 05:39:24;;;;;;;5.77;5.13;;;;;;;15.23;77.15;99011.38;5071347;28;41580;-78
2022/09/12 05:41:53;;;;;;;5.83;5.23;;;;;;;15.20;77.10;98995.66;5055265;28;41474;-79
2022/09/12 05:44:20;;;;;;;7.10;6.37;;;;;;;15.29;77.55;99010.91;5054915;28;39499;-79
2022/09/12 05:46:50;;;;;;;6.60;5.90;;;;;;;15.32;76.89;99016.03;5072076;28;42719;-77
2022/09/12 05:49:17;;;;;;;8.03;6.37;;;;;;;15.35;76.77;99010.41;5071978;28;42791;-79
2022/09/12 05:51:46;;;;;;;9.13;6.93;;;;;;;15.31;77.19;99008.13;5054486;28;41596;-80
2022/09/12 05:54:18;;;;;;;6.33;5.63;;;;;;;15.36;77.10;99012.13;5054482;28;39225;-79
2022/09/12 05:56:46;;;;;;;10.17;7.20;;;;;;;15.41;77.38;99015.28;5054891;28;42860;-77
2022/09/12 05:59:17;;;;;;;7.87;6.40;;;;;;;15.40;77.23;99015.41;5072560;28;42636;-81
2022/09/12 06:01:45;;;;;;;8.70;5.73;;;;;;;15.44;77.27;99020.38;5072554;28;43049;-79
2022/09/12 06:04:12;;;;;;;7.77;6.03;;;;;;;15.39;77.14;99003.88;5072580;28;40848;-78
2022/09/12 06:06:43;;;;;;;4.97;4.47;;;;;;;15.53;76.94;99023.28;5054772;28;40623;-83
2022/09/12 06:09:13;;;;;;;5.07;4.37;;;;;;;15.55;76.50;99027.56;5069782;28;42376;-81
2022/09/12 06:11:42;;;;;;;6.00;5.33;;;;;;;15.53;76.27;99018.78;5054702;28;41250;-78
2022/09/12 06:14:11;;;;;;;5.10;4.40;;;;;;;15.60;76.27;99022.69;5076490;28;39419;-81
2022/09/12 06:16:39;;;;;;;5.20;4.70;;;;;;;15.63;76.12;99030.44;5056424;28;40717;-79
2022/09/12 06:19:12;;;;;;;5.87;5.37;;;;;;;15.69;76.02;99029.13;5057528;28;41720;-81
2022/09/12 06:21:40;;;;;;;4.40;4.00;;;;;;;15.71;75.75;99033.34;5075158;28;41738;-78
2022/09/12 06:24:07;;;;;;;5.57;5.07;;;;;;;15.74;75.64;99021.56;5074699;28;39753;-79
2022/09/12 06:26:35;;;;;;;4.37;3.97;;;;;;;15.79;75.93;99022.06;5074462;28;40620;-82
2022/09/12 06:29:05;;;;;;;6.90;5.50;;;;;;;15.84;75.55;99017.16;5090981;28;42704;-83
2022/09/12 06:31:35;;;;;;;5.00;4.33;;;;;;;15.92;75.82;99017.41;5057562;28;41696;-79
2022/09/12 06:34:05;;;;;;;5.60;5.03;;;;;;;15.99;75.84;99007.91;5092270;28;41608;-82
2022/09/12 06:36:35;;;;;;;6.23;5.63;;;;;;;16.05;75.63;99009.25;5074716;28;40968;-82
2022/09/12 06:39:06;;;;;;;4.67;4.23;;;;;;;16.13;75.72;99018.31;5056611;28;42979;-80
2022/09/12 06:41:34;;;;;;;4.93;4.43;;;;;;;16.23;75.29;99023.75;5071699;28;44094;-80
2022/09/12 06:44:04;;;;;;;4.63;4.23;;;;;;;16.30;74.93;99029.44;5057152;28;39650;-79
2022/09/12 06:46:31;;;;;;;5.67;5.17;;;;;;;16.37;74.58;99022.59;5074534;28;41767;-79
2022/09/12 06:49:01;;;;;;;4.30;3.90;;;;;;;16.45;74.61;99022.78;5091723;28;42536;-78
2022/09/12 06:51:28;;;;;;;4.53;4.13;;;;;;;16.47;74.10;99023.50;5073441;28;42343;-80
2022/09/12 06:53:57;;;;;;;5.30;4.80;;;;;;;16.11;74.16;98956.13;5057108;28;42652;-78
2022/09/12 06:56:26;;;;;;;4.10;3.70;;;;;;;16.64;73.74;99028.34;5073156;28;39927;-77
2022/09/12 06:58:57;;;;;;;5.20;4.57;;;;;;;16.75;73.55;99022.91;5069037;28;42874;-79
2022/09/12 07:01:27;;;;;;;4.77;3.63;;;;;;;16.80;73.01;99023.38;5052227;28;43510;-81
2022/09/12 07:03:57;;;;;;;4.63;4.07;;;;;;;16.87;72.51;99023.69;5070303;28;38938;-79
2022/09/12 07:06:30;;;;;;;4.93;4.17;;;;;;;16.94;72.44;99018.69;5056272;28;42534;-79
2022/09/12 07:08:58;;;;;;;4.93;4.20;;;;;;;17.08;71.86;99027.19;5072806;28;44479;-78
2022/09/12 07:11:28;;;;;;;4.90;4.40;;;;;;;17.19;71.78;99020.91;5074370;28;42586;-80
2022/09/12 07:13:56;;;;;;;4.10;3.70;;;;;;;17.27;71.21;99023.78;5070140;28;39530;-80
2022/09/12 07:16:26;;;;;;;4.27;3.73;;;;;;;17.26;70.97;99006.03;5055616;28;40795;-81
2022/09/12 07:18:55;;;;;;;4.60;4.03;;;;;;;17.40;70.13;99027.06;5055962;28;41588;-81
2022/09/12 07:21:23;;;;;;;4.97;3.90;;;;;;;17.39;69.80;99014.66;5054157;28;44459;-79
2022/09/12 07:23:54;;;;;;;3.53;3.23;;;;;;;17.55;69.94;99030.25;5057400;28;38529;-83
2022/09/12 07:26:21;;;;;;;4.90;4.40;;;;;;;17.64;69.96;99031.28;5073033;28;41342;-81
2022/09/12 07:28:52;;;;;;;5.00;4.50;;;;;;;17.34;69.45;98976.75;5073520;28;42085;-80
2022/09/12 07:31:21;;;;;;;4.20;3.60;;;;;;;17.72;69.35;99031.44;5056833;28;43069;-78
2022/09/12 07:33:51;;;;;;;3.63;3.30;;;;;;;17.73;69.36;99020.59;5089529;28;40245;-84
2022/09/12 07:36:21;;;;;;;4.93;4.10;;;;;;;17.87;69.34;99035.44;5072589;28;41714;-79
2022/09/12 07:38:49;;;;;;;4.33;3.90;;;;;;;17.86;69.25;99025.69;5089148;28;42704;-82
2022/09/12 07:41:20;;;;;;;5.37;4.13;;;;;;;18.01;69.22;99032.38;5055452;28;42403;-80
2022/09/12 07:43:48;;;;;;;5.30;4.67;;;;;;;18.15;68.87;99033.81;5087977;28;41907;-80
2022/09/12 07:46:16;;;;;;;5.23;4.73;;;;;;;18.27;67.86;99038.88;5072649;28;42812;-78
2022/09/12 07:48:44;;;;;;;5.77;4.83;;;;;;;18.36;67.37;99036.34;5055121;28;41876;-81
2022/09/12 07:51:13;;;;;;;6.40;4.93;;;;;;;18.48;67.34;99035.22;5072495;28;42968;-79
2022/09/12 07:53:42;;;;;;;4.87;3.80;;;;;;;18.55;66.92;99030.97;5072329;28;40328;-81
2022/09/12 07:56:10;;;;;;;4.43;4.03;;;;;;;18.63;66.92;99028.47;5072752;28;41758;-79
2022/09/12 07:58:40;;;;;;;5.63;4.27;;;;;;;18.70;66.08;99045.69;5073270;28;43900;-80
2022/09/12 08:01:09;;;;;;;4.40;4.00;;;;;;;18.62;65.57;99043.72;5073320;28;43064;-78
2022/09/12 08:03:37;;;;;;;4.57;4.17;;;;;;;18.54;66.21;99034.66;5092074;28;39917;-82
2022/09/12 08:06:06;;;;;;;5.37;4.57;;;;;;;18.58;66.21;99046.81;5093591;28;41803;-77
2022/09/12 08:08:36;;;;;;;4.33;3.93;;;;;;;18.64;65.68;99035.53;5058973;28;42913;-81
2022/09/12 08:11:06;;;;;;;3.10;2.80;;;;;;;18.82;66.12;99038.31;5093276;28;42501;-81
2022/09/12 08:13:35;;;;;;;5.03;4.53;;;;;;;19.00;65.81;99044.66;5093480;28;42156;-80
2022/09/12 08:16:05;;;;;;;4.47;4.07;;;;;;;19.07;65.60;99031.50;5075492;28;40700;-80
2022/09/12 08:18:36;;;;;;;5.47;4.67;;;;;;;19.26;65.58;99043.03;5075414;28;41889;-81
2022/09/12 08:21:06;;;;;;;4.27;3.87;;;;;;;19.27;64.81;99038.53;5058616;28;43590;-80
2022/09/12 08:23:35;;;;;;;4.93;4.23;;;;;;;19.48;65.07;99047.19;5058601;28;39187;-79
2022/09/12 08:26:04;;;;;;;5.27;4.47;;;;;;;19.60;64.65;99048.72;5092981;28;41695;-80
2022/09/12 08:28:34;;;;;;;6.33;5.03;;;;;;;19.70;64.48;99044.16;5093298;28;43406;-78
2022/09/12 08:31:02;;;;;;;6.13;4.40;;;;;;;19.83;64.45;99045.66;5058392;28;43223;-80
2022/09/12 08:33:32;;;;;;;5.37;4.43;;;;;;;19.95;64.07;99033.69;5093349;28;40901;-78
2022/09/12 08:36:05;;;;;;;7.10;5.27;;;;;;;20.04;63.77;99035.47;5075214;28;40948;-81
2022/09/12 08:38:33;;;;;;;8.13;5.90;;;;;;;20.11;63.65;99039.25;5090240;28;43063;-82
2022/09/12 08:41:09;;;;;;;6.77;4.93;;;;;;;20.26;63.83;99037.75;5075567;28;42204;-80
2022/09/12 08:43:58;;;;;;;7.33;6.27;;;;;;;20.48;63.10;99041.00;5090456;28;41015;-83
2022/09/12 08:46:32;;;;;;;8.77;7.00;;;;;;;20.61;62.01;99038.78;5090299;28;42682;-79
2022/09/12 08:49:02;;;;;;;7.77;6.63;;;;;;;20.74;61.36;99044.59;5058150;28;43560;-81
2022/09/12 08:51:33;;;;;;;7.87;6.40;;;;;;;20.82;60.87;99043.81;5092206;28;41883;-82
2022/09/12 08:54:02;;;;;;;7.70;6.20;;;;;;;20.84;60.94;99050.75;5058333;28;38807;-82
2022/09/12 08:56:36;;;;;;;6.03;4.87;;;;;;;20.91;61.06;99049.09;5075062;28;41724;-79
2022/09/12 08:59:04;;;;;;;7.20;6.13;;;;;;;21.04;60.78;99054.94;5091532;28;42606;-83
2022/09/12 09:01:37;;;;;;;6.87;6.17;;;;;;;21.06;60.20;99047.53;5092830;28;43275;-84
2022/09/12 09:04:25;;;;;;;7.97;6.07;;;;;;;21.22;59.96;99056.78;5091760;28;40742;-84
2022/09/12 09:07:15;;;;;;;7.00;6.30;;;;;;;21.36;60.24;99064.28;5089952;28;42495;-81
2022/09/12 09:09:59;;;;;;;6.83;6.20;;;;;;;21.49;59.06;99070.09;5075148;28;42759;-81
2022/09/12 09:12:40;;;;;;;7.10;6.17;;;;;;;21.64;59.02;99060.38;5093903;28;42212;-82
2022/09/12 09:15:23;;;;;;;8.70;6.87;;;;;;;21.79;58.34;99045.28;5075080;28;39945;-82
2022/09/12 09:17:54;;;;;;;6.83;5.90;;;;;;;22.07;58.07;99063.97;5090100;28;42784;-81
2022/09/12 09:20:29;;;;;;;7.17;6.30;;;;;;;22.25;57.92;99050.38;5074006;28;43700;-84
2022/09/12 09:23:02;;;;;;;11.13;7.27;;;;;;;22.34;57.52;99050.22;5071737;28;43105;-83
2022/09/12 09:25:46;;;;;;;8.33;6.80;;;;;;;22.40;56.86;99054.94;5073925;28;40883;-81
2022/09/12 09:28:21;;;;;;;8.17;6.87;;;;;;;22.67;56.15;99050.22;5088011;28;42653;-83
2022/09/12 09:30:50;;;;;;;8.40;6.73;;;;;;;22.94;55.85;99058.03;5074314;28;43359;-82
2022/09/12 09:33:22;;;;;;;7.87;6.40;;;;;;;23.19;55.91;99051.59;5057621;28;41129;-83
2022/09/12 09:35:58;;;;;;;8.40;6.77;;;;;;;23.65;55.33;99057.25;5057153;28;40361;-85
2022/09/12 09:38:38;;;;;;;8.23;6.07;;;;;;;24.27;53.80;99057.34;5088030;28;42083;-80
2022/09/12 09:41:23;;;;;;;6.57;5.80;;;;;;;24.52;52.75;99048.03;5089204;28;43842;-80
2022/09/12 09:43:52;;;;;;;7.37;6.37;;;;;;;24.66;51.85;99051.84;5057193;28;40982;-82
2022/09/12 09:46:20;;;;;;;6.37;5.77;;;;;;;25.05;52.11;99063.41;5073904;28;40735;-84
2022/09/12 09:48:51;;;;;;;7.27;6.50;;;;;;;25.59;50.57;99065.06;5091538;28;42277;-82
2022/09/12 09:51:27;;;;;;;7.17;6.40;;;;;;;25.81;50.02;99069.59;5056754;28;41516;-83
2022/09/12 09:53:59;;;;;;;6.27;5.67;;;;;;;25.97;49.80;99057.69;5089088;28;42699;-83
2022/09/12 09:56:32;;;;;;;7.40;5.77;;;;;;;25.77;49.16;99060.97;5057400;28;39119;-81
2022/09/12 09:59:11;;;;;;;6.97;6.10;;;;;;;25.60;50.27;99058.59;5089393;28;42443;-78
2022/09/12 10:01:46;;;;;;;6.67;6.03;;;;;;;25.59;50.95;99051.53;5074682;28;42141;-80
2022/09/12 10:04:22;;;;;;;6.30;5.70;;;;;;;25.68;51.12;99045.84;5074469;28;41188;-84
2022/09/12 10:06:53;;;;;;;6.00;5.40;;;;;;;25.82;50.17;99049.56;5074735;28;40675;-81
2022/09/12 10:09:24;;;;;;;6.53;5.93;;;;;;;26.09;49.38;99051.56;5074778;28;40968;-79
2022/09/12 10:11:53;;;;;;;6.90;6.20;;;;;;;26.48;49.70;99044.94;5074648;28;41741;-83
2022/09/12 10:14:42;;;;;;;6.07;5.50;;;;;;;26.97;48.40;99044.19;5092076;28;42784;-83
2022/09/12 10:17:26;;;;;;;8.37;7.30;;;;;;;27.12;46.62;99053.94;5057678;28;41761;-83
2022/09/12 10:19:53;;;;;;;6.40;5.80;;;;;;;27.39;46.50;99052.28;5073094;28;41728;-83
2022/09/12 10:22:23;;;;;;;6.77;6.17;;;;;;;27.83;45.27;99056.53;5092701;28;42644;-83
2022/09/12 10:24:53;;;;;;;5.90;5.30;;;;;;;28.23;44.63;99050.25;5090309;28;42255;-81
2022/09/12 10:27:24;;;;;;;7.47;6.83;;;;;;;28.75;42.89;99056.88;5072197;28;41429;-83
2022/09/12 10:30:00;;;;;;;5.93;5.33;;;;;;;29.48;42.78;99060.50;5056152;28;40813;-80
2022/09/12 10:32:33;;;;;;;5.90;5.40;;;;;;;30.36;40.88;99066.34;5087478;28;42745;-83
2022/09/12 10:35:04;;;;;;;5.03;4.47;;;;;;;31.14;39.87;99074.31;5090213;28;43088;-81
2022/09/12 10:37:35;;;;;;;6.87;6.10;;;;;;;31.60;38.41;99080.22;5088599;28;40346;-83
2022/09/12 10:40:06;;;;;;;5.67;5.17;;;;;;;31.77;38.31;99081.31;5055987;28;42520;-79
2022/09/12 10:42:49;;;;;;;6.43;5.80;;;;;;;31.84;38.03;99077.69;5056337;28;41625;-84
2022/09/12 10:45:27;;;;;;;9.57;7.90;;;;;;;31.71;37.63;99076.75;5091479;28;42347;-82
2022/09/12 10:47:58;;;;;;;8.30;7.40;;;;;;;31.76;37.63;99076.94;5091118;28;20218;-79
2022/09/12 10:50:30;;;;;;;7.70;6.90;;;;;;;31.68;37.75;99060.78;5091255;28;41665;-81
2022/09/12 10:53:15;;;;;;;7.17;6.03;;;;;;;31.58;38.36;99054.13;5070212;28;42564;-81
2022/09/12 10:56:02;;;;;;;5.13;4.73;;;;;;;31.67;38.34;99048.13;5089732;28;42757;-80
2022/09/12 10:58:47;;;;;;;5.27;4.83;;;;;;;31.87;37.67;99050.69;5070852;28;39818;-80
2022/09/12 11:01:34;;;;;;;7.67;6.93;;;;;;;32.28;36.50;99060.09;5073880;28;40425;-78
2022/09/12 11:04:21;;;;;;;5.80;5.30;;;;;;;32.25;35.78;99050.44;5089467;28;42531;-82
2022/09/12 11:06:59;;;;;;;6.60;6.00;;;;;;;32.39;35.83;99046.44;5087961;28;43560;-80
2022/09/12 11:09:35;;;;;;;5.83;5.23;;;;;;;32.57;36.15;99042.81;5071889;28;40054;-84
2022/09/12 11:12:13;;;;;;;10.23;7.43;;;;;;;32.69;35.20;99048.34;5073141;28;40873;-80
2022/09/12 11:14:52;;;;;;;9.07;7.43;;;;;;;32.78;35.58;99041.47;5055671;28;43098;-79
2022/09/12 11:17:31;;;;;;;8.57;6.47;;;;;;;33.21;34.79;99045.88;5087984;28;43294;-78
2022/09/12 11:20:39;;;;;;;6.73;6.13;;;;;;;33.40;33.29;99052.94;5088338;28;40926;-78
2022/09/12 11:23:38;;;;;;;7.63;6.83;;;;;;;33.48;33.04;99056.19;5090777;28;41947;-83
2022/09/12 11:26:16;;;;;;;5.67;5.17;;;;;;;33.78;33.23;99044.22;5088507;28;43436;-83
2022/09/12 11:28:56;;;;;;;5.50;4.90;;;;;;;34.06;33.36;99044.28;5053267;28;42945;-84
2022/09/12 11:31:42;;;;;;;5.47;4.83;;;;;;;34.31;33.20;99041.25;5056348;28;38955;-82
2022/09/12 11:34:22;;;;;;;6.07;5.53;;;;;;;34.68;31.34;99058.19;5055018;28;43340;-81
2022/09/12 11:37:02;;;;;;;6.17;5.57;;;;;;;35.32;30.69;99049.72;5070182;28;42675;-85
2022/09/12 11:39:38;;;;;;;5.77;4.47;;;;;;;36.49;29.43;99050.25;5075426;28;41001;-83
2022/09/12 11:42:16;;;;;;;6.37;5.83;;;;;;;37.14;27.40;99063.06;5091265;28;40103;-79
2022/09/12 11:44:48;;;;;;;5.57;5.07;;;;;;;37.47;27.94;99050.06;5092722;28;41727;-84
2022/09/12 11:47:19;;;;;;;4.50;4.10;;;;;;;37.96;28.07;99043.19;5072863;28;42471;-79
2022/09/12 11:49:50;;;;;;;4.28;3.92;;;;;;;38.42;27.06;99052.56;5094063;28;42829;-80
2022/09/12 11:52:20;;;;;;;4.03;3.72;;;;;;;38.51;26.89;99049.25;5092807;28;40545;-80
2022/09/12 11:54:52;;;;;;;5.17;4.77;;;;;;;38.26;26.36;99052.75;5093479;28;43349;-82
2022/09/12 11:57:28;;;;;;;3.95;3.65;;;;;;;37.85;27.49;99033.19;5091460;28;42600;-83
2022/09/12 12:00:00;;;;;;;4.75;4.40;;;;;;;37.54;27.18;99039.63;5093471;28;42571;-80